createdAt,value
2022-08-26T00:00:52.034Z,24.64
2022-08-26T00:03:21.094Z,24.71
2022-08-26T00:05:51.337Z,24.54
2022-08-26T00:08:21.328Z,24.73
2022-08-26T00:10:50.822Z,24.94
2022-08-26T00:13:19.586Z,24.72
2022-08-26T00:15:48.265Z,25.14
2022-08-26T00:18:22.333Z,25.09
2022-08-26T00:20:51.648Z,25.21
2022-08-26T00:23:20.405Z,24.81
2022-08-26T00:25:53.483Z,25.33
2022-08-26T00:28:22.628Z,25.10
2022-08-26T00:30:52.664Z,24.69
2022-08-26T00:33:23.030Z,24.55
2022-08-26T00:35:51.611Z,24.30
2022-08-26T00:38:21.724Z,24.49
2022-08-26T00:40:55.288Z,24.65
2022-08-26T00:43:25.836Z,25.12
2022-08-26T00:46:04.931Z,24.81
2022-08-26T00:48:37.522Z,25.14
2022-08-26T00:51:14.175Z,25.22
2022-08-26T00:54:14.079Z,25.04
2022-08-26T00:56:57.636Z,24.79
2022-08-26T00:59:32.756Z,24.86
2022-08-26T01:02:03.103Z,25.04
2022-08-26T01:04:35.442Z,25.11
2022-08-26T01:07:06.961Z,25.15
2022-08-26T01:09:36.560Z,25.35
2022-08-26T01:12:06.207Z,25.50
2022-08-26T01:14:36.715Z,24.91
2022-08-26T01:17:07.240Z,25.48
2022-08-26T01:19:43.081Z,25.37
2022-08-26T01:22:28.233Z,24.97
2022-08-26T01:25:03.401Z,25.13
2022-08-26T01:27:33.598Z,25.32
2022-08-26T01:30:03.384Z,25.61
2022-08-26T01:32:33.122Z,24.72
2022-08-26T01:35:02.035Z,25.53
2022-08-26T01:37:36.464Z,25.39
2022-08-26T01:40:08.283Z,25.88
2022-08-26T01:42:36.848Z,25.37
2022-08-26T01:45:11.340Z,25.56
2022-08-26T01:47:41.610Z,25.18
2022-08-26T01:50:15.850Z,25.33
2022-08-26T01:52:59.680Z,24.79
2022-08-26T01:55:33.176Z,24.78
2022-08-26T01:58:06.605Z,25.02
2022-08-26T02:00:36.063Z,24.75
2022-08-26T02:03:18.864Z,25.17
2022-08-26T02:05:56.355Z,24.71
2022-08-26T02:08:30.973Z,24.93
2022-08-26T02:11:00.028Z,24.71
2022-08-26T02:13:31.482Z,24.59
2022-08-26T02:16:03.790Z,24.86
2022-08-26T02:18:37.212Z,25.32
2022-08-26T02:21:07.392Z,25.35
2022-08-26T02:23:37.516Z,25.73
2022-08-26T02:26:17.103Z,25.85
2022-08-26T02:28:58.326Z,24.88
2022-08-26T02:31:26.913Z,25.20
2022-08-26T02:33:55.359Z,24.66
2022-08-26T02:36:28.385Z,24.67
2022-08-26T02:38:57.273Z,24.62
2022-08-26T02:41:26.218Z,24.55
2022-08-26T02:43:54.683Z,24.56
2022-08-26T02:46:30.043Z,24.03
2022-08-26T02:48:59.482Z,25.13
2022-08-26T02:51:28.319Z,24.71
2022-08-26T02:53:56.944Z,24.73
2022-08-26T02:56:25.704Z,24.83
2022-08-26T02:58:56.434Z,25.33
2022-08-26T03:01:30.363Z,25.68
2022-08-26T03:04:01.537Z,25.14
2022-08-26T03:06:30.205Z,24.55
2022-08-26T03:08:58.599Z,24.40
2022-08-26T03:11:32.261Z,25.11
2022-08-26T03:14:01.805Z,25.25
2022-08-26T03:16:34.332Z,25.36
2022-08-26T03:19:06.442Z,24.83
2022-08-26T03:21:37.706Z,24.94
2022-08-26T03:24:06.427Z,25.27
2022-08-26T03:26:34.855Z,25.34
2022-08-26T03:29:24.490Z,25.44
2022-08-26T03:31:53.595Z,25.33
2022-08-26T03:34:22.534Z,25.19
2022-08-26T03:36:51.270Z,25.03
2022-08-26T03:39:19.779Z,25.16
2022-08-26T03:41:48.238Z,24.83
2022-08-26T03:44:16.632Z,24.28
2022-08-26T03:46:45.859Z,24.50
2022-08-26T03:49:14.311Z,25.07
2022-08-26T03:51:43.725Z,24.24
2022-08-26T03:54:14.208Z,24.82
2022-08-26T03:56:42.643Z,25.36
2022-08-26T03:59:14.898Z,24.99
2022-08-26T04:01:43.990Z,24.47
2022-08-26T04:04:15.545Z,24.89
2022-08-26T04:06:44.909Z,23.99
2022-08-26T04:09:18.495Z,24.61
2022-08-26T04:11:50.394Z,24.39
2022-08-26T04:14:22.221Z,24.60
2022-08-26T04:16:51.637Z,24.78
2022-08-26T04:19:21.508Z,24.60
2022-08-26T04:21:53.547Z,24.32
2022-08-26T04:24:23.867Z,24.29
2022-08-26T04:26:52.510Z,25.11
2022-08-26T04:29:25.301Z,24.78
2022-08-26T04:31:55.940Z,24.30
2022-08-26T04:34:28.442Z,24.21
2022-08-26T04:36:58.129Z,24.46
2022-08-26T04:39:27.975Z,24.47
2022-08-26T04:41:57.877Z,24.81
2022-08-26T04:44:30.242Z,24.87
2022-08-26T04:46:58.608Z,24.38
2022-08-26T04:49:27.576Z,24.23
2022-08-26T04:51:56.124Z,24.79
2022-08-26T04:54:26.081Z,24.19
2022-08-26T04:56:55.032Z,24.32
2022-08-26T04:59:23.563Z,23.80
2022-08-26T05:01:57.174Z,23.89
2022-08-26T05:04:25.836Z,24.37
2022-08-26T05:06:59.221Z,24.74
2022-08-26T05:09:31.022Z,24.09
2022-08-26T05:11:59.564Z,24.32
2022-08-26T05:14:30.153Z,24.08
2022-08-26T05:16:58.593Z,24.07
2022-08-26T05:19:27.843Z,24.18
2022-08-26T05:21:56.535Z,23.95
2022-08-26T05:24:25.027Z,24.47
2022-08-26T05:26:53.528Z,25.12
2022-08-26T05:29:22.366Z,24.21
2022-08-26T05:31:52.688Z,24.74
2022-08-26T05:34:21.224Z,25.01
2022-08-26T05:36:50.050Z,24.58
2022-08-26T05:39:18.895Z,24.63
2022-08-26T05:41:47.588Z,24.16
2022-08-26T05:44:18.810Z,24.46
2022-08-26T05:46:47.438Z,24.54
2022-08-26T05:49:16.325Z,24.07
2022-08-26T05:51:47.474Z,24.49
2022-08-26T05:54:21.384Z,24.66
2022-08-26T05:56:53.551Z,24.66
2022-08-26T05:59:24.186Z,24.92
2022-08-26T06:01:55.186Z,24.67
2022-08-26T06:04:28.497Z,25.00
2022-08-26T06:06:58.673Z,25.00
2022-08-26T06:09:27.320Z,24.74
2022-08-26T06:11:58.604Z,24.47
2022-08-26T06:14:27.170Z,24.08
2022-08-26T06:16:56.050Z,24.33
2022-08-26T06:19:24.753Z,24.24
2022-08-26T06:21:54.852Z,24.18
2022-08-26T06:24:42.283Z,24.45
2022-08-26T06:27:13.618Z,23.92
2022-08-26T06:29:42.550Z,24.52
2022-08-26T06:32:11.499Z,24.79
2022-08-26T06:34:39.970Z,24.52
2022-08-26T06:37:09.078Z,24.74
2022-08-26T06:39:41.179Z,24.61
2022-08-26T06:42:10.918Z,24.88
2022-08-26T06:44:41.384Z,25.46
2022-08-26T06:47:13.211Z,25.18
2022-08-26T06:49:41.860Z,24.90
2022-08-26T06:52:12.768Z,24.17
2022-08-26T06:54:44.336Z,24.79
2022-08-26T06:57:14.356Z,23.97
2022-08-26T06:59:45.468Z,24.71
2022-08-26T07:02:14.688Z,24.23
2022-08-26T07:04:44.366Z,24.61
2022-08-26T07:07:16.538Z,24.39
2022-08-26T07:09:45.815Z,23.98
2022-08-26T07:12:14.351Z,23.96
2022-08-26T07:14:47.463Z,24.50
2022-08-26T07:17:16.872Z,24.63
2022-08-26T07:19:46.495Z,24.56
2022-08-26T07:22:15.339Z,24.80
2022-08-26T07:24:44.981Z,24.76
2022-08-26T07:27:15.667Z,24.62
2022-08-26T07:29:44.888Z,25.04
2022-08-26T07:32:15.137Z,25.61
2022-08-26T07:34:43.633Z,24.46
2022-08-26T07:37:13.090Z,24.51
2022-08-26T07:39:43.264Z,25.06
2022-08-26T07:42:15.508Z,24.54
2022-08-26T07:44:47.191Z,25.02
2022-08-26T07:47:24.745Z,25.10
2022-08-26T07:49:56.657Z,24.43
2022-08-26T07:52:28.639Z,24.40
2022-08-26T07:55:00.961Z,24.40
2022-08-26T07:57:30.353Z,25.61
2022-08-26T07:59:59.732Z,25.44
2022-08-26T08:02:29.184Z,25.15
2022-08-26T08:04:58.392Z,25.39
2022-08-26T08:07:45.150Z,25.47
2022-08-26T08:10:17.925Z,25.73
2022-08-26T08:12:48.231Z,25.83
2022-08-26T08:15:20.084Z,25.56
2022-08-26T08:17:50.552Z,25.28
2022-08-26T08:20:22.061Z,25.09
2022-08-26T08:22:52.455Z,25.07
2022-08-26T08:25:23.292Z,25.10
2022-08-26T08:27:51.968Z,24.72
2022-08-26T08:30:22.744Z,25.18
2022-08-26T08:32:52.386Z,24.84
2022-08-26T08:35:22.633Z,25.15
2022-08-26T08:37:54.355Z,24.92
2022-08-26T08:40:26.236Z,24.73
2022-08-26T08:42:58.186Z,25.15
2022-08-26T08:45:26.749Z,24.89
2022-08-26T08:47:57.823Z,24.87
2022-08-26T08:50:31.504Z,25.26
2022-08-26T08:53:17.495Z,26.12
2022-08-26T08:55:58.355Z,25.13
2022-08-26T08:58:48.904Z,25.28
2022-08-26T09:01:24.817Z,25.26
2022-08-26T09:04:24.705Z,25.63
2022-08-26T09:10:28.512Z,26.16
2022-08-26T09:12:57.876Z,25.18
2022-08-26T09:15:56.454Z,25.37
2022-08-26T09:18:39.835Z,25.84
2022-08-26T09:21:11.624Z,25.42
2022-08-26T09:23:42.774Z,26.35
2022-08-26T09:26:40.914Z,25.76
2022-08-26T09:31:47.144Z,25.36
2022-08-26T09:34:23.020Z,25.27
2022-08-26T09:36:55.789Z,25.06
2022-08-26T09:39:24.218Z,24.72
2022-08-26T09:42:10.964Z,24.85
2022-08-26T09:44:52.200Z,25.46
2022-08-26T09:47:26.184Z,25.35
2022-08-26T09:50:18.534Z,24.98
2022-08-26T09:52:47.316Z,25.48
2022-08-26T09:55:22.875Z,25.06
2022-08-26T09:57:54.001Z,24.90
2022-08-26T10:00:55.536Z,24.80
2022-08-26T10:03:28.345Z,25.73
2022-08-26T10:06:21.940Z,25.92
2022-08-26T10:09:02.741Z,25.90
2022-08-26T10:11:39.871Z,26.06
2022-08-26T10:14:21.157Z,26.40
2022-08-26T10:16:56.525Z,26.22
2022-08-26T10:19:56.114Z,26.15
2022-08-26T10:22:59.557Z,26.37
2022-08-26T10:25:33.285Z,25.83
2022-08-26T10:28:18.744Z,26.36
2022-08-26T10:30:56.061Z,26.21
2022-08-26T10:33:25.228Z,26.61
2022-08-26T10:35:58.414Z,26.56
2022-08-26T10:38:37.694Z,26.61
2022-08-26T10:41:18.246Z,25.26
2022-08-26T10:43:58.962Z,25.90
2022-08-26T10:46:35.843Z,26.09
2022-08-26T10:49:09.701Z,26.13
2022-08-26T10:51:47.429Z,26.24
2022-08-26T10:54:26.065Z,26.51
2022-08-26T10:57:02.515Z,26.77
2022-08-26T10:59:30.879Z,27.03
2022-08-26T11:02:14.695Z,25.49
2022-08-26T11:05:18.536Z,26.18
2022-08-26T11:07:52.600Z,25.81
2022-08-26T11:10:23.224Z,25.19
2022-08-26T11:13:03.856Z,24.80
2022-08-26T11:15:32.827Z,25.77
2022-08-26T11:18:04.427Z,25.18
2022-08-26T11:20:47.441Z,26.12
2022-08-26T11:23:28.146Z,25.14
2022-08-26T11:25:57.257Z,25.51
2022-08-26T11:28:35.475Z,25.32
2022-08-26T11:31:08.759Z,26.03
2022-08-26T11:34:07.045Z,26.00
2022-08-26T11:37:04.951Z,25.45
2022-08-26T11:39:56.948Z,25.28
2022-08-26T11:42:46.400Z,25.25
2022-08-26T11:45:24.447Z,24.96
2022-08-26T11:47:54.667Z,26.17
2022-08-26T11:50:27.011Z,25.70
2022-08-26T11:53:01.887Z,25.33
2022-08-26T11:55:33.798Z,24.79
2022-08-26T11:58:05.008Z,25.38
2022-08-26T12:00:45.744Z,25.48
2022-08-26T12:05:46.317Z,24.83
2022-08-26T12:08:18.695Z,24.40
2022-08-26T12:10:49.064Z,24.37
2022-08-26T12:13:25.075Z,23.58
2022-08-26T12:15:58.038Z,23.50
2022-08-26T12:18:31.606Z,24.06
2022-08-26T12:21:19.260Z,24.15
2022-08-26T12:23:50.486Z,23.90
2022-08-26T12:26:22.454Z,24.43
2022-08-26T12:29:10.819Z,25.10
2022-08-26T12:32:17.386Z,24.70
2022-08-26T12:34:49.202Z,24.23
2022-08-26T12:37:18.883Z,24.40
2022-08-26T12:39:49.021Z,24.37
2022-08-26T12:42:17.545Z,24.86
2022-08-26T12:45:00.618Z,25.00
2022-08-26T12:47:42.970Z,24.39
2022-08-26T12:50:12.332Z,23.62
2022-08-26T12:53:03.225Z,24.21
2022-08-26T12:55:31.777Z,24.30
2022-08-26T12:58:10.643Z,23.42
2022-08-26T13:01:04.528Z,24.69
2022-08-26T13:03:40.285Z,24.53
2022-08-26T13:06:15.579Z,24.56
2022-08-26T13:08:46.142Z,24.60
2022-08-26T13:11:19.489Z,24.53
2022-08-26T13:13:54.804Z,24.17
2022-08-26T13:16:27.002Z,23.84
2022-08-26T13:19:00.092Z,23.59
2022-08-26T13:21:37.743Z,23.88
2022-08-26T13:24:13.159Z,24.46
2022-08-26T13:26:43.915Z,24.22
2022-08-26T13:29:13.592Z,24.23
2022-08-26T13:31:44.399Z,24.67
2022-08-26T13:34:18.095Z,24.27
2022-08-26T13:36:48.281Z,24.59
2022-08-26T13:39:17.890Z,25.56
2022-08-26T13:41:46.420Z,23.97
2022-08-26T13:44:15.124Z,23.39
2022-08-26T13:46:46.663Z,23.84
2022-08-26T13:49:15.321Z,24.00
2022-08-26T13:51:43.792Z,23.42
2022-08-26T13:54:12.267Z,24.29
2022-08-26T13:56:40.762Z,24.61
2022-08-26T13:59:09.229Z,24.30
2022-08-26T14:01:39.739Z,23.68
2022-08-26T14:04:08.661Z,24.34
2022-08-26T14:06:37.300Z,23.71
2022-08-26T14:09:05.853Z,23.43
2022-08-26T14:11:39.122Z,22.76
2022-08-26T14:14:23.524Z,23.01
2022-08-26T14:17:00.081Z,23.22
2022-08-26T14:19:31.267Z,23.09
2022-08-26T14:22:00.809Z,22.94
2022-08-26T14:24:30.079Z,22.58
2022-08-26T14:26:58.738Z,23.03
2022-08-26T14:29:27.694Z,22.83
2022-08-26T14:31:57.868Z,22.59
2022-08-26T14:34:26.614Z,22.74
2022-08-26T14:36:55.159Z,23.43
2022-08-26T14:39:24.775Z,23.89
2022-08-26T14:41:56.591Z,23.15
2022-08-26T14:44:29.825Z,23.60
2022-08-26T14:47:01.540Z,23.76
2022-08-26T14:49:31.312Z,23.73
2022-08-26T14:51:59.841Z,24.16
2022-08-26T14:54:29.377Z,24.85
2022-08-26T14:57:06.107Z,24.61
2022-08-26T14:59:41.418Z,24.97
2022-08-26T15:02:13.924Z,25.43
2022-08-26T15:05:02.411Z,25.53
2022-08-26T15:07:31.418Z,24.81
2022-08-26T15:10:00.160Z,24.82
2022-08-26T15:12:41.713Z,25.19
2022-08-26T15:15:13.231Z,25.45
2022-08-26T15:17:41.860Z,25.36
2022-08-26T15:20:11.419Z,25.05
2022-08-26T15:22:42.472Z,24.67
2022-08-26T15:25:12.983Z,24.54
2022-08-26T15:27:42.191Z,25.28
2022-08-26T15:30:13.000Z,24.94
2022-08-26T15:32:41.661Z,24.43
2022-08-26T15:35:10.255Z,24.39
2022-08-26T15:37:40.140Z,24.34
2022-08-26T15:40:09.846Z,24.70
2022-08-26T15:42:38.534Z,25.72
2022-08-26T15:45:07.674Z,26.15
2022-08-26T15:48:00.636Z,26.45
2022-08-26T15:50:25.492Z,26.16
2022-08-26T15:52:54.156Z,26.05
2022-08-26T15:55:23.400Z,25.91
2022-08-26T15:57:52.192Z,25.45
2022-08-26T16:00:21.261Z,25.68
2022-08-26T16:02:50.337Z,25.27
2022-08-26T16:05:18.869Z,24.02
2022-08-26T16:07:48.561Z,23.60
2022-08-26T16:10:18.500Z,23.47
2022-08-26T16:12:47.000Z,23.66
2022-08-26T16:15:15.575Z,23.85
2022-08-26T16:17:44.168Z,24.53
2022-08-26T16:20:13.145Z,24.01
2022-08-26T16:22:41.572Z,24.68
2022-08-26T16:25:10.865Z,24.12
2022-08-26T16:27:39.300Z,24.06
2022-08-26T16:30:08.471Z,23.39
2022-08-26T16:32:37.003Z,23.48
2022-08-26T16:35:06.171Z,23.62
2022-08-26T16:37:37.680Z,23.34
2022-08-26T16:40:09.936Z,23.85
2022-08-26T16:42:38.512Z,24.24
2022-08-26T16:45:07.529Z,23.72
2022-08-26T16:47:36.141Z,23.60
2022-08-26T16:50:06.691Z,23.27
2022-08-26T16:52:40.142Z,23.29
2022-08-26T16:55:11.584Z,24.18
2022-08-26T16:57:42.404Z,24.64
2022-08-26T17:00:27.653Z,24.09
2022-08-26T17:02:58.279Z,23.90
2022-08-26T17:05:31.825Z,23.95
2022-08-26T17:08:00.816Z,23.93
2022-08-26T17:10:30.438Z,23.83
2022-08-26T17:12:59.283Z,23.56
2022-08-26T17:15:28.830Z,23.63
2022-08-26T17:17:59.119Z,23.58
2022-08-26T17:20:27.879Z,23.27
2022-08-26T17:22:56.609Z,22.85
2022-08-26T17:25:28.814Z,23.32
2022-08-26T17:28:00.682Z,23.00
2022-08-26T17:30:29.735Z,22.92
2022-08-26T17:32:59.591Z,23.30
2022-08-26T17:35:29.391Z,23.76
2022-08-26T17:37:59.735Z,23.77
2022-08-26T17:40:31.794Z,23.71
2022-08-26T17:43:00.548Z,23.07
2022-08-26T17:45:33.047Z,23.48
2022-08-26T17:48:02.759Z,23.91
2022-08-26T17:50:31.404Z,23.60
2022-08-26T17:53:00.019Z,23.62
2022-08-26T17:55:29.106Z,23.78
2022-08-26T17:57:57.807Z,23.70
2022-08-26T18:00:27.573Z,23.38
2022-08-26T18:02:56.512Z,24.02
2022-08-26T18:05:25.171Z,24.52
2022-08-26T18:07:53.787Z,24.57
2022-08-26T18:10:22.563Z,23.77
2022-08-26T18:12:58.327Z,24.09
2022-08-26T18:15:27.299Z,23.90
2022-08-26T18:17:58.230Z,24.00
2022-08-26T18:20:27.957Z,23.63
2022-08-26T18:22:56.810Z,23.43
2022-08-26T18:25:29.755Z,24.16
2022-08-26T18:27:58.275Z,24.44
2022-08-26T18:30:27.260Z,24.52
2022-08-26T18:32:57.264Z,24.73
2022-08-26T18:35:28.658Z,23.77
2022-08-26T18:38:10.481Z,24.36
2022-08-26T18:40:42.864Z,24.13
2022-08-26T18:43:14.101Z,24.24
2022-08-26T18:45:42.536Z,24.45
2022-08-26T18:48:11.329Z,24.47
2022-08-26T18:50:42.346Z,23.70
2022-08-26T18:53:12.260Z,24.03
2022-08-26T18:55:40.872Z,24.60
2022-08-26T18:58:09.496Z,24.01
2022-08-26T19:00:39.384Z,24.05
2022-08-26T19:03:08.326Z,24.35
2022-08-26T19:05:47.436Z,24.37
2022-08-26T19:08:15.968Z,24.51
2022-08-26T19:10:44.365Z,24.02
2022-08-26T19:13:14.134Z,24.14
2022-08-26T19:15:45.459Z,24.13
2022-08-26T19:18:15.014Z,23.90
2022-08-26T19:20:46.791Z,24.60
2022-08-26T19:23:31.096Z,25.00
2022-08-26T19:26:04.631Z,25.13
2022-08-26T19:28:34.226Z,25.12
2022-08-26T19:31:03.684Z,25.11
2022-08-26T19:33:32.187Z,24.70
2022-08-26T19:36:03.667Z,24.94
2022-08-26T19:38:34.499Z,25.10
2022-08-26T19:41:03.039Z,24.86
2022-08-26T19:43:32.171Z,24.92
2022-08-26T19:46:00.728Z,24.83
2022-08-26T19:48:29.591Z,24.69
2022-08-26T19:50:57.996Z,24.12
2022-08-26T19:53:26.521Z,24.23
2022-08-26T19:55:55.047Z,24.12
2022-08-26T19:58:24.544Z,24.50
2022-08-26T20:00:52.988Z,24.57
2022-08-26T20:03:23.755Z,24.60
2022-08-26T20:05:52.167Z,24.71
2022-08-26T20:08:22.412Z,24.56
2022-08-26T20:10:51.753Z,24.53
2022-08-26T20:13:21.912Z,24.76
2022-08-26T20:15:50.370Z,24.63
2022-08-26T20:18:37.468Z,24.75
2022-08-26T20:21:24.695Z,24.72
2022-08-26T20:24:00.541Z,24.47
2022-08-26T20:26:33.212Z,24.56
2022-08-26T20:29:01.821Z,24.20
2022-08-26T20:31:31.199Z,24.08
2022-08-26T20:33:59.692Z,24.36
2022-08-26T20:36:29.014Z,24.30
2022-08-26T20:38:58.093Z,24.37
2022-08-26T20:41:27.505Z,24.30
2022-08-26T20:43:56.348Z,24.50
2022-08-26T20:46:25.591Z,24.61
2022-08-26T20:48:54.900Z,24.33
2022-08-26T20:51:26.755Z,23.90
2022-08-26T20:53:55.140Z,24.34
2022-08-26T20:56:25.083Z,24.10
2022-08-26T20:58:59.129Z,24.35
2022-08-26T21:01:34.341Z,24.23
2022-08-26T21:04:06.880Z,24.52
2022-08-26T21:06:35.542Z,23.89
2022-08-26T21:09:07.451Z,23.69
2022-08-26T21:11:37.999Z,22.96
2022-08-26T21:14:15.873Z,23.28
2022-08-26T21:16:46.552Z,22.93
2022-08-26T21:19:18.162Z,22.63
2022-08-26T21:21:48.083Z,23.07
2022-08-26T21:24:16.974Z,23.50
2022-08-26T21:26:46.223Z,23.49
2022-08-26T21:29:15.011Z,23.52
2022-08-26T21:31:46.391Z,23.37
2022-08-26T21:34:17.128Z,23.49
2022-08-26T21:36:46.851Z,22.90
2022-08-26T21:39:17.246Z,22.88
2022-08-26T21:41:47.142Z,22.83
2022-08-26T21:44:17.587Z,22.94
2022-08-26T21:46:47.125Z,23.27
2022-08-26T21:49:16.634Z,22.95
2022-08-26T21:51:51.726Z,22.96
2022-08-26T21:54:20.095Z,22.48
2022-08-26T21:56:48.947Z,23.04
2022-08-26T21:59:18.768Z,22.59
2022-08-26T22:01:47.683Z,22.05
2022-08-26T22:04:18.197Z,22.56
2022-08-26T22:06:53.157Z,22.86
2022-08-26T22:09:25.477Z,22.78
2022-08-26T22:11:56.776Z,22.94
2022-08-26T22:14:30.466Z,23.14
2022-08-26T22:16:59.709Z,22.92
2022-08-26T22:19:28.320Z,23.01
2022-08-26T22:21:57.681Z,23.07
2022-08-26T22:24:27.325Z,23.24
2022-08-26T22:26:55.961Z,22.98
2022-08-26T22:29:25.096Z,23.33
2022-08-26T22:31:53.749Z,23.04
2022-08-26T22:34:23.195Z,23.18
2022-08-26T22:36:51.893Z,23.23
2022-08-26T22:39:22.868Z,23.36
2022-08-26T22:41:53.812Z,22.74
2022-08-26T22:44:22.704Z,22.69
2022-08-26T22:46:54.257Z,23.07
2022-08-26T22:49:23.456Z,23.14
2022-08-26T22:51:52.052Z,22.44
2022-08-26T22:54:20.496Z,22.94
2022-08-26T22:56:49.022Z,23.17
2022-08-26T22:59:17.981Z,23.05
2022-08-26T23:01:47.294Z,22.98
2022-08-26T23:04:15.729Z,22.77
2022-08-26T23:06:47.693Z,23.01
2022-08-26T23:09:18.669Z,23.24
2022-08-26T23:11:48.550Z,22.46
2022-08-26T23:14:18.683Z,22.56
2022-08-26T23:16:47.532Z,22.29
2022-08-26T23:19:18.976Z,21.25
2022-08-26T23:21:48.381Z,21.96
2022-08-26T23:24:17.297Z,22.23
2022-08-26T23:26:46.287Z,22.23
2022-08-26T23:29:15.838Z,22.04
2022-08-26T23:31:44.343Z,22.24
2022-08-26T23:34:32.395Z,22.09
2022-08-26T23:37:01.515Z,22.19
2022-08-26T23:39:33.927Z,21.99
2022-08-26T23:42:03.230Z,22.39
2022-08-26T23:44:32.935Z,21.96
2022-08-26T23:47:01.703Z,22.33
2022-08-26T23:49:31.651Z,22.26
2022-08-26T23:52:18.782Z,22.54
2022-08-26T23:54:48.735Z,21.98
2022-08-26T23:57:18.550Z,22.05
2022-08-26T23:59:48.421Z,22.09
